createdAt,value
2022-08-28T00:08:11.994Z,26.76
2022-08-28T00:18:18.291Z,26.53
2022-08-28T00:28:25.228Z,26.52
2022-08-28T00:38:31.857Z,26.59
2022-08-28T00:48:38.354Z,26.64
2022-08-28T00:58:44.766Z,26.40
2022-08-28T01:08:51.760Z,26.36
2022-08-28T01:18:58.275Z,26.22
2022-08-28T01:29:05.346Z,26.00
2022-08-28T01:39:11.727Z,26.13
2022-08-28T01:49:17.946Z,26.12
2022-08-28T01:59:24.226Z,26.07
2022-08-28T02:09:31.115Z,26.10
2022-08-28T02:19:37.241Z,26.03
2022-08-28T02:29:43.292Z,25.95
2022-08-28T02:39:49.672Z,25.87
2022-08-28T02:49:57.771Z,25.86
2022-08-28T03:00:04.279Z,25.90
2022-08-28T03:10:10.830Z,25.69
2022-08-28T03:20:16.770Z,25.72
2022-08-28T03:30:22.734Z,25.57
2022-08-28T03:40:29.140Z,25.43
2022-08-28T03:50:35.635Z,25.55
2022-08-28T04:00:42.171Z,25.40
2022-08-28T04:10:51.409Z,25.41
2022-08-28T04:20:58.035Z,25.52
2022-08-28T04:31:04.908Z,25.45
2022-08-28T04:41:11.096Z,25.50
2022-08-28T04:51:17.800Z,25.15
2022-08-28T05:01:24.313Z,25.09
2022-08-28T05:11:34.592Z,25.29
2022-08-28T05:21:42.016Z,25.21
2022-08-28T05:31:48.416Z,25.30
2022-08-28T05:41:55.042Z,25.29
2022-08-28T05:52:01.254Z,24.99
2022-08-28T06:02:07.427Z,25.12
2022-08-28T06:12:13.576Z,24.86
2022-08-28T06:22:20.779Z,24.93
2022-08-28T06:32:27.272Z,24.88
2022-08-28T06:42:33.619Z,25.00
2022-08-28T06:52:40.297Z,25.00
2022-08-28T07:02:48.531Z,24.87
2022-08-28T07:12:54.511Z,25.06
2022-08-28T07:23:00.944Z,25.04
2022-08-28T07:33:07.354Z,25.15
2022-08-28T07:43:16.726Z,25.15
2022-08-28T07:53:23.021Z,24.98
2022-08-28T08:03:29.178Z,25.02
2022-08-28T08:13:36.123Z,25.12
2022-08-28T08:23:42.626Z,25.26
2022-08-28T08:33:48.643Z,25.04
2022-08-28T08:43:55.614Z,25.17
2022-08-28T08:54:02.054Z,25.34
2022-08-28T09:04:07.997Z,25.14
2022-08-28T09:14:14.420Z,25.13
2022-08-28T09:24:23.311Z,25.16
2022-08-28T09:34:29.484Z,25.24
2022-08-28T09:44:35.820Z,25.34
2022-08-28T09:54:42.301Z,25.37
2022-08-28T10:04:48.445Z,25.37
2022-08-28T10:14:55.369Z,25.30
2022-08-28T10:25:02.056Z,25.42
2022-08-28T10:35:08.263Z,25.43
2022-08-28T10:45:14.939Z,25.52
2022-08-28T10:55:21.602Z,25.56
2022-08-28T11:05:27.851Z,25.56
2022-08-28T11:15:37.103Z,25.58
2022-08-28T11:25:43.818Z,25.56
2022-08-28T11:35:52.087Z,25.56
2022-08-28T11:45:58.366Z,25.55
2022-08-28T11:56:05.172Z,25.61
2022-08-28T12:06:11.567Z,25.61
2022-08-28T12:16:17.742Z,25.57
2022-08-28T12:26:24.063Z,25.57
2022-08-28T12:36:30.246Z,25.58
2022-08-28T12:46:39.782Z,25.58
2022-08-28T12:56:46.541Z,25.59
2022-08-28T13:06:52.782Z,25.63
2022-08-28T13:16:58.969Z,25.58
2022-08-28T13:27:05.707Z,25.55
2022-08-28T13:37:14.974Z,25.58
2022-08-28T13:47:23.542Z,25.58
2022-08-28T13:57:30.841Z,25.77
2022-08-28T14:07:38.771Z,25.90
2022-08-28T14:17:45.781Z,25.89
2022-08-28T14:27:52.146Z,25.98
2022-08-28T14:38:00.247Z,26.02
2022-08-28T14:48:06.849Z,26.04
2022-08-28T14:58:14.318Z,26.06
2022-08-28T15:08:21.327Z,26.06
2022-08-28T15:18:27.751Z,26.04
2022-08-28T15:28:33.905Z,26.04
2022-08-28T15:38:40.448Z,26.03
2022-08-28T15:48:47.371Z,26.01
2022-08-28T15:58:54.364Z,26.01
2022-08-28T16:09:00.976Z,26.01
2022-08-28T16:19:07.736Z,26.02
2022-08-28T16:29:14.699Z,26.01
2022-08-28T16:39:21.830Z,26.00
2022-08-28T16:49:28.669Z,26.02
2022-08-28T16:59:37.669Z,26.03
2022-08-28T17:09:43.962Z,26.01
2022-08-28T17:19:51.253Z,26.00
2022-08-28T17:29:58.056Z,25.97
2022-08-28T17:40:04.877Z,25.97
2022-08-28T17:50:12.583Z,25.96
2022-08-28T18:00:19.542Z,25.99
2022-08-28T18:10:26.208Z,26.00
2022-08-28T18:20:33.542Z,26.05
2022-08-28T18:30:39.899Z,26.08
2022-08-28T18:40:47.111Z,26.11
2022-08-28T18:50:53.028Z,26.09
2022-08-28T19:00:59.885Z,26.15
2022-08-28T19:11:06.556Z,26.12
2022-08-28T19:21:14.997Z,26.22
2022-08-28T19:31:23.048Z,26.26
2022-08-28T19:41:30.069Z,26.23
2022-08-28T19:51:36.608Z,26.26
2022-08-28T20:01:42.826Z,26.23
2022-08-28T20:11:49.265Z,26.26
2022-08-28T20:21:55.518Z,26.23
2022-08-28T20:32:02.014Z,26.26
2022-08-28T20:42:08.374Z,26.19
2022-08-28T20:52:14.726Z,26.21
2022-08-28T21:02:21.162Z,26.25
2022-08-28T21:12:27.340Z,26.27
2022-08-28T21:22:34.561Z,26.26
2022-08-28T21:32:41.959Z,26.29
2022-08-28T21:42:48.452Z,26.30
2022-08-28T21:52:54.236Z,26.29
2022-08-28T22:03:00.462Z,26.23
2022-08-28T22:13:06.586Z,26.28
2022-08-28T22:23:12.929Z,26.21
2022-08-28T22:33:19.176Z,26.17
2022-08-28T22:43:25.463Z,26.20
2022-08-28T22:53:31.617Z,26.16
2022-08-28T23:03:39.714Z,26.13
2022-08-28T23:13:46.573Z,26.12
2022-08-28T23:23:52.944Z,26.09
2022-08-28T23:33:59.136Z,26.08
2022-08-28T23:44:08.471Z,26.03
2022-08-28T23:54:15.441Z,25.97
